Time;durP1;ratioP1;P1;durP2;ratioP2;P2;SDS_P1;SDS_P2;PMS_P1;PMS_P2;Temp;Humidity;BMP_temperature;BMP_pressure;BME280_temperature;BME280_humidity;BME280_pressure;Samples;Min_cycle;Max_cycle;Signal;HPM_P1;HPM_P2
2024/01/16 00:00:24;;;;;;;12.05;3.97;;;;;;;;;;6183116;28;20057;-79
2024/01/16 00:03:26;;;;;;;5.68;3.88;;;;;;;;;;6190532;28;20051;-79
2024/01/16 00:06:28;;;;;;;9.32;4.15;;;;;;;;;;6186516;28;20062;-80
2024/01/16 00:09:33;;;;;;;7.68;3.55;;;;;;;;;;6205392;28;20531;-79
2024/01/16 00:12:35;;;;;;;9.98;3.85;;;;;;;;;;6190622;28;20073;-79
2024/01/16 00:15:36;;;;;;;5.47;3.90;;;;;;;;;;6185172;28;20066;-79
2024/01/16 00:18:38;;;;;;;6.90;3.75;;;;;;;;;;6186481;28;20046;-80
2024/01/16 00:21:46;;;;;;;8.45;4.07;;;;;;;;;;6181886;28;20062;-78
2024/01/16 00:24:48;;;;;;;12.85;3.53;;;;;;;;;;6187223;28;20066;-79
2024/01/16 00:27:50;;;;;;;7.22;3.80;;;;;;;;;;6189490;28;20070;-78
2024/01/16 00:30:52;;;;;;;10.00;3.28;;;;;;;;;;6179830;28;20056;-79
2024/01/16 00:33:54;;;;;;;8.80;4.07;;;;;;;;;;6185742;28;20054;-79
2024/01/16 00:36:56;;;;;;;6.45;3.47;;;;;;;;;;6186574;28;20038;-80
2024/01/16 00:39:57;;;;;;;5.63;3.08;;;;;;;;;;6188671;28;20053;-80
2024/01/16 00:42:59;;;;;;;5.15;2.55;;;;;;;;;;6186521;28;20092;-78
2024/01/16 00:46:01;;;;;;;7.95;3.33;;;;;;;;;;6191299;28;20129;-80
2024/01/16 00:49:03;;;;;;;8.13;3.03;;;;;;;;;;6188875;28;20404;-80
2024/01/16 00:52:05;;;;;;;6.20;2.97;;;;;;;;;;6186197;28;20050;-79
2024/01/16 00:55:06;;;;;;;5.85;3.13;;;;;;;;;;6189578;28;20133;-79
2024/01/16 00:58:08;;;;;;;7.03;3.55;;;;;;;;;;6187758;28;20136;-79
2024/01/16 01:01:10;;;;;;;6.03;3.13;;;;;;;;;;6183744;28;20416;-80
2024/01/16 01:04:12;;;;;;;4.32;2.72;;;;;;;;;;6200904;28;20185;-78
2024/01/16 01:07:14;;;;;;;5.55;2.70;;;;;;;;;;6182696;28;20054;-79
2024/01/16 01:10:16;;;;;;;5.80;3.25;;;;;;;;;;6187925;28;20851;-80
2024/01/16 01:13:18;;;;;;;6.32;3.20;;;;;;;;;;6170869;28;20065;-79
2024/01/16 01:16:19;;;;;;;9.45;3.25;;;;;;;;;;6189298;28;20062;-79
2024/01/16 01:19:21;;;;;;;9.07;3.80;;;;;;;;;;6184530;28;20050;-79
2024/01/16 01:22:23;;;;;;;6.47;3.05;;;;;;;;;;6183096;28;20070;-80
2024/01/16 01:25:26;;;;;;;5.72;3.25;;;;;;;;;;6186438;28;20633;-80
2024/01/16 01:28:27;;;;;;;5.47;3.38;;;;;;;;;;6195961;28;20500;-80
2024/01/16 01:31:29;;;;;;;11.20;4.10;;;;;;;;;;6184479;28;20201;-80
2024/01/16 01:34:31;;;;;;;8.50;3.47;;;;;;;;;;6187656;28;20586;-80
2024/01/16 01:37:33;;;;;;;6.70;3.35;;;;;;;;;;6192063;28;20054;-81
2024/01/16 01:40:35;;;;;;;8.98;4.78;;;;;;;;;;6178492;28;20045;-81
2024/01/16 01:43:36;;;;;;;8.02;3.65;;;;;;;;;;6175232;28;20050;-80
2024/01/16 01:46:40;;;;;;;8.02;4.20;;;;;;;;;;6193071;28;20664;-81
2024/01/16 01:49:42;;;;;;;5.90;4.05;;;;;;;;;;6186577;28;20057;-80
2024/01/16 01:52:44;;;;;;;10.70;4.47;;;;;;;;;;6196688;28;20061;-80
2024/01/16 01:55:46;;;;;;;10.83;4.20;;;;;;;;;;6197737;28;20046;-80
2024/01/16 01:58:52;;;;;;;11.48;3.97;;;;;;;;;;6188500;28;20056;-80
2024/01/16 02:01:55;;;;;;;11.50;4.03;;;;;;;;;;6190569;28;20053;-78
2024/01/16 02:04:57;;;;;;;7.18;3.80;;;;;;;;;;6188013;28;20042;-81
2024/01/16 02:08:00;;;;;;;9.53;4.40;;;;;;;;;;6185121;28;20559;-80
2024/01/16 02:11:02;;;;;;;7.40;3.50;;;;;;;;;;6190624;28;20054;-80
2024/01/16 02:14:03;;;;;;;8.70;3.50;;;;;;;;;;6187026;28;21052;-80
2024/01/16 02:17:05;;;;;;;8.20;4.00;;;;;;;;;;6186622;28;20424;-80
2024/01/16 02:20:08;;;;;;;8.75;3.85;;;;;;;;;;6188325;28;20045;-80
2024/01/16 02:23:13;;;;;;;9.37;4.13;;;;;;;;;;6187501;28;20062;-80
2024/01/16 02:26:15;;;;;;;6.47;3.65;;;;;;;;;;6189256;28;20049;-80
2024/01/16 02:29:17;;;;;;;7.40;3.83;;;;;;;;;;6186747;28;20421;-80
2024/01/16 02:32:19;;;;;;;7.72;3.72;;;;;;;;;;6185596;28;20513;-80
2024/01/16 02:35:21;;;;;;;7.82;3.63;;;;;;;;;;6181975;28;20046;-79
2024/01/16 02:38:23;;;;;;;7.50;3.60;;;;;;;;;;6173707;28;20467;-80
2024/01/16 02:41:25;;;;;;;10.90;4.50;;;;;;;;;;6204949;28;20042;-80
2024/01/16 02:44:27;;;;;;;8.65;4.72;;;;;;;;;;6187468;28;20218;-80
2024/01/16 02:47:29;;;;;;;10.15;4.60;;;;;;;;;;6184846;28;20492;-80
2024/01/16 02:50:31;;;;;;;11.40;4.85;;;;;;;;;;6170463;28;20498;-80
2024/01/16 02:53:32;;;;;;;9.10;4.07;;;;;;;;;;6188175;28;20102;-79
2024/01/16 02:56:34;;;;;;;10.80;4.53;;;;;;;;;;6191927;28;20216;-80
2024/01/16 02:59:36;;;;;;;11.60;5.32;;;;;;;;;;6180393;28;20061;-80
2024/01/16 03:02:39;;;;;;;14.88;5.00;;;;;;;;;;6201160;28;20042;-80
2024/01/16 03:05:41;;;;;;;6.05;4.53;;;;;;;;;;6172521;28;20324;-79
2024/01/16 03:08:42;;;;;;;10.88;5.10;;;;;;;;;;6210015;28;20049;-79
2024/01/16 03:11:44;;;;;;;8.13;4.97;;;;;;;;;;6204139;28;20049;-80
2024/01/16 03:14:46;;;;;;;12.63;4.53;;;;;;;;;;6199811;28;20057;-80
2024/01/16 03:17:48;;;;;;;9.32;4.47;;;;;;;;;;6201481;28;20045;-80
2024/01/16 03:20:51;;;;;;;10.25;5.43;;;;;;;;;;6178968;28;20125;-81
2024/01/16 03:23:52;;;;;;;10.80;4.35;;;;;;;;;;6183116;28;20175;-80
2024/01/16 03:26:54;;;;;;;7.30;4.38;;;;;;;;;;6191815;28;20492;-79
2024/01/16 03:29:56;;;;;;;9.10;5.38;;;;;;;;;;6184836;28;20048;-81
2024/01/16 03:32:57;;;;;;;7.10;4.22;;;;;;;;;;6184867;28;20056;-79
2024/01/16 03:35:59;;;;;;;7.70;4.45;;;;;;;;;;6181166;28;20046;-78
2024/01/16 03:39:01;;;;;;;9.70;5.10;;;;;;;;;;6196889;28;20046;-79
2024/01/16 03:42:03;;;;;;;6.22;4.32;;;;;;;;;;6189601;28;20060;-79
2024/01/16 03:45:06;;;;;;;11.52;4.50;;;;;;;;;;6182640;28;20053;-77
2024/01/16 03:48:08;;;;;;;7.43;4.15;;;;;;;;;;6160382;28;20049;-79
2024/01/16 03:51:10;;;;;;;6.68;4.53;;;;;;;;;;6180537;28;20061;-79
2024/01/16 03:54:16;;;;;;;8.63;3.95;;;;;;;;;;6188675;28;20046;-79
2024/01/16 03:57:17;;;;;;;5.97;3.92;;;;;;;;;;6183705;28;20069;-78
2024/01/16 04:00:19;;;;;;;7.15;4.50;;;;;;;;;;6175119;28;20162;-78
2024/01/16 04:03:21;;;;;;;8.02;4.18;;;;;;;;;;6184433;28;20050;-80
2024/01/16 04:06:23;;;;;;;9.50;5.15;;;;;;;;;;6184595;28;20046;-80
2024/01/16 04:09:24;;;;;;;8.10;4.45;;;;;;;;;;6181857;28;20046;-78
2024/01/16 04:12:26;;;;;;;6.60;4.00;;;;;;;;;;6180604;28;20046;-79
2024/01/16 04:15:28;;;;;;;10.35;4.60;;;;;;;;;;6172424;28;20093;-79
2024/01/16 04:18:35;;;;;;;11.10;4.20;;;;;;;;;;6177841;28;20054;-80
2024/01/16 04:21:37;;;;;;;10.55;5.05;;;;;;;;;;6178955;28;20073;-78
2024/01/16 04:24:38;;;;;;;7.75;4.10;;;;;;;;;;6176648;28;20046;-79
2024/01/16 04:27:40;;;;;;;10.38;4.78;;;;;;;;;;6197105;28;20053;-78
2024/01/16 04:30:42;;;;;;;7.05;4.50;;;;;;;;;;6183320;28;20535;-79
2024/01/16 04:33:44;;;;;;;7.30;3.97;;;;;;;;;;6187750;28;20137;-79
2024/01/16 04:36:46;;;;;;;8.13;4.20;;;;;;;;;;6185453;28;20061;-79
2024/01/16 04:39:48;;;;;;;9.60;4.78;;;;;;;;;;6191492;28;20054;-80
2024/01/16 04:42:50;;;;;;;8.05;4.10;;;;;;;;;;6187815;28;20050;-80
2024/01/16 04:45:51;;;;;;;8.68;4.00;;;;;;;;;;6187080;28;20046;-79
2024/01/16 04:48:53;;;;;;;11.70;4.32;;;;;;;;;;6186053;28;20078;-78
2024/01/16 04:51:55;;;;;;;8.18;4.88;;;;;;;;;;6180478;28;20053;-80
2024/01/16 04:54:57;;;;;;;7.13;4.32;;;;;;;;;;6186359;28;20050;-79
2024/01/16 04:58:00;;;;;;;9.50;4.50;;;;;;;;;;6189708;28;20112;-78
2024/01/16 05:01:02;;;;;;;7.38;4.25;;;;;;;;;;6186106;28;20527;-80
2024/01/16 05:04:05;;;;;;;10.55;5.03;;;;;;;;;;6164639;28;20057;-79
2024/01/16 05:07:06;;;;;;;8.88;5.05;;;;;;;;;;6184499;28;20046;-79
2024/01/16 05:10:11;;;;;;;9.43;4.47;;;;;;;;;;6195839;28;20057;-79
2024/01/16 05:13:13;;;;;;;8.48;4.75;;;;;;;;;;6182517;28;20043;-79
2024/01/16 05:16:14;;;;;;;8.85;4.95;;;;;;;;;;6191126;28;20038;-79
2024/01/16 05:19:16;;;;;;;15.30;5.57;;;;;;;;;;6187085;28;20049;-79
2024/01/16 05:22:18;;;;;;;11.20;5.50;;;;;;;;;;6184953;28;20042;-79
2024/01/16 05:25:21;;;;;;;9.23;5.22;;;;;;;;;;6185098;28;20046;-79
2024/01/16 05:28:23;;;;;;;13.02;5.57;;;;;;;;;;6202929;28;20745;-80
2024/01/16 05:31:24;;;;;;;8.02;5.00;;;;;;;;;;6187465;28;20205;-80
2024/01/16 05:34:27;;;;;;;14.02;5.60;;;;;;;;;;6184628;28;20047;-79
2024/01/16 05:37:29;;;;;;;10.15;5.82;;;;;;;;;;6184725;28;20046;-79
2024/01/16 05:40:31;;;;;;;10.32;5.78;;;;;;;;;;6184915;28;20152;-79
2024/01/16 05:43:33;;;;;;;7.07;4.43;;;;;;;;;;6183124;28;20561;-79
2024/01/16 05:46:34;;;;;;;8.60;5.00;;;;;;;;;;6183902;28;20532;-80
2024/01/16 05:49:36;;;;;;;11.38;5.53;;;;;;;;;;6183194;28;20050;-78
2024/01/16 05:52:38;;;;;;;9.80;5.25;;;;;;;;;;6197501;28;20051;-79
2024/01/16 05:55:43;;;;;;;9.85;5.15;;;;;;;;;;6188747;28;20420;-79
2024/01/16 05:58:46;;;;;;;8.65;5.35;;;;;;;;;;6202892;28;20042;-80
2024/01/16 06:01:49;;;;;;;9.07;4.53;;;;;;;;;;6187824;28;20074;-79
2024/01/16 06:04:51;;;;;;;11.25;5.57;;;;;;;;;;6195596;28;20046;-79
2024/01/16 06:07:52;;;;;;;7.75;5.03;;;;;;;;;;6180076;28;20420;-78
2024/01/16 06:10:54;;;;;;;8.27;4.80;;;;;;;;;;6206343;28;20101;-80
2024/01/16 06:13:56;;;;;;;9.50;5.03;;;;;;;;;;6191367;28;20046;-79
2024/01/16 06:16:57;;;;;;;10.07;5.55;;;;;;;;;;6195648;28;20144;-78
2024/01/16 06:19:59;;;;;;;11.07;5.55;;;;;;;;;;6176453;28;20046;-79
2024/01/16 06:23:01;;;;;;;9.45;4.25;;;;;;;;;;6191819;28;20439;-79
2024/01/16 06:26:03;;;;;;;15.23;5.47;;;;;;;;;;6171356;28;20046;-80
2024/01/16 06:29:05;;;;;;;9.02;4.95;;;;;;;;;;6189471;28;20631;-79
2024/01/16 06:32:10;;;;;;;9.93;4.40;;;;;;;;;;6186278;28;20043;-79
2024/01/16 06:35:16;;;;;;;11.40;5.63;;;;;;;;;;6168248;28;20527;-78
2024/01/16 06:38:17;;;;;;;8.35;4.80;;;;;;;;;;6203970;28;20054;-80
2024/01/16 06:41:20;;;;;;;6.60;4.72;;;;;;;;;;6188164;28;20497;-80
2024/01/16 06:44:22;;;;;;;8.07;4.75;;;;;;;;;;6202141;28;20054;-79
2024/01/16 06:47:24;;;;;;;9.70;5.55;;;;;;;;;;6186881;28;20137;-79
2024/01/16 06:50:26;;;;;;;12.77;5.93;;;;;;;;;;6182903;28;20042;-79
2024/01/16 06:53:28;;;;;;;8.98;4.82;;;;;;;;;;6186829;28;20294;-80
2024/01/16 06:56:30;;;;;;;9.25;4.95;;;;;;;;;;6206357;28;20042;-80
2024/01/16 06:59:31;;;;;;;12.55;5.72;;;;;;;;;;6191967;28;20109;-79
2024/01/16 07:02:34;;;;;;;13.20;5.63;;;;;;;;;;6199205;28;20034;-79
2024/01/16 07:05:35;;;;;;;12.93;6.13;;;;;;;;;;6190970;28;20129;-80
2024/01/16 07:08:37;;;;;;;17.60;5.28;;;;;;;;;;6205673;28;20180;-79
2024/01/16 07:11:42;;;;;;;11.60;6.18;;;;;;;;;;6169769;28;20050;-78
2024/01/16 07:14:44;;;;;;;10.30;5.50;;;;;;;;;;6184498;28;20052;-81
2024/01/16 07:17:46;;;;;;;8.38;5.10;;;;;;;;;;6183089;28;20116;-81
2024/01/16 07:20:48;;;;;;;10.00;5.40;;;;;;;;;;6194811;28;20069;-79
2024/01/16 07:23:50;;;;;;;8.93;4.85;;;;;;;;;;6188262;28;20045;-80
2024/01/16 07:26:54;;;;;;;8.77;4.78;;;;;;;;;;6191286;28;20081;-81
2024/01/16 07:29:56;;;;;;;8.00;4.88;;;;;;;;;;6179940;28;20042;-79
2024/01/16 07:32:58;;;;;;;9.60;4.93;;;;;;;;;;6186021;28;20042;-81
2024/01/16 07:36:01;;;;;;;9.88;5.70;;;;;;;;;;6180307;28;20050;-80
2024/01/16 07:39:03;;;;;;;11.38;5.75;;;;;;;;;;6188263;28;20096;-80
2024/01/16 07:42:05;;;;;;;13.02;5.20;;;;;;;;;;6186708;28;20057;-80
2024/01/16 07:45:07;;;;;;;10.50;5.88;;;;;;;;;;6183561;28;20046;-80
2024/01/16 07:48:09;;;;;;;15.05;6.43;;;;;;;;;;6183023;28;20050;-79
2024/01/16 07:51:10;;;;;;;17.05;6.40;;;;;;;;;;6178044;28;20038;-78
2024/01/16 07:54:13;;;;;;;12.75;5.72;;;;;;;;;;6187460;28;20078;-79
2024/01/16 07:57:15;;;;;;;14.63;5.97;;;;;;;;;;6185476;28;20162;-78
2024/01/16 08:00:17;;;;;;;8.77;5.25;;;;;;;;;;6196905;28;20149;-81
2024/01/16 08:03:18;;;;;;;9.35;5.15;;;;;;;;;;6186712;28;20042;-82
2024/01/16 08:06:21;;;;;;;10.05;5.20;;;;;;;;;;6188337;28;20066;-83
2024/01/16 08:09:23;;;;;;;10.77;5.50;;;;;;;;;;6194416;28;20106;-81
2024/01/16 08:12:25;;;;;;;9.35;4.88;;;;;;;;;;6178458;28;20042;-83
2024/01/16 08:15:27;;;;;;;11.02;5.20;;;;;;;;;;6187771;28;20073;-82
2024/01/16 08:18:28;;;;;;;8.88;4.63;;;;;;;;;;6189835;28;20054;-81
2024/01/16 08:21:30;;;;;;;9.93;5.20;;;;;;;;;;6187538;28;20065;-82
2024/01/16 08:24:32;;;;;;;7.15;4.55;;;;;;;;;;6203901;28;20058;-82
2024/01/16 08:27:34;;;;;;;9.40;4.75;;;;;;;;;;6204327;28;20052;-81
2024/01/16 08:30:38;;;;;;;8.18;3.35;;;;;;;;;;6209681;28;20046;-81
2024/01/16 08:33:40;;;;;;;7.63;3.55;;;;;;;;;;6187995;28;20069;-82
2024/01/16 08:36:48;;;;;;;8.73;3.85;;;;;;;;;;6188226;28;20058;-82
2024/01/16 08:39:49;;;;;;;8.30;3.75;;;;;;;;;;6207625;28;20053;-83
2024/01/16 08:42:54;;;;;;;8.55;3.78;;;;;;;;;;6207009;28;20061;-80
2024/01/16 08:45:59;;;;;;;7.93;3.60;;;;;;;;;;6204757;28;20042;-82
2024/01/16 08:49:00;;;;;;;5.70;2.90;;;;;;;;;;6192340;28;20049;-82
2024/01/16 08:52:02;;;;;;;5.20;3.53;;;;;;;;;;6173831;28;20064;-81
2024/01/16 08:55:04;;;;;;;8.25;3.92;;;;;;;;;;6191870;28;20513;-81
2024/01/16 08:58:06;;;;;;;7.50;2.85;;;;;;;;;;6191351;28;20582;-82
2024/01/16 09:01:10;;;;;;;8.77;3.05;;;;;;;;;;6186283;28;20042;-81
2024/01/16 09:04:12;;;;;;;7.88;3.30;;;;;;;;;;6185937;28;20046;-81
2024/01/16 09:07:15;;;;;;;4.35;3.15;;;;;;;;;;6191585;28;20149;-81
2024/01/16 09:10:18;;;;;;;7.57;2.88;;;;;;;;;;6190380;28;20048;-81
2024/01/16 09:13:20;;;;;;;12.68;2.47;;;;;;;;;;6187828;28;20661;-79
2024/01/16 09:16:22;;;;;;;9.15;3.00;;;;;;;;;;6190398;28;20054;-79
2024/01/16 09:19:24;;;;;;;4.95;2.28;;;;;;;;;;6187991;28;20042;-80
2024/01/16 09:22:27;;;;;;;4.95;2.47;;;;;;;;;;6186243;28;20616;-80
2024/01/16 09:25:29;;;;;;;7.97;3.03;;;;;;;;;;6190751;28;20123;-80
2024/01/16 09:28:31;;;;;;;7.68;1.88;;;;;;;;;;6182472;28;20050;-81
2024/01/16 09:31:33;;;;;;;2.90;2.00;;;;;;;;;;6184548;28;20046;-81
2024/01/16 09:34:35;;;;;;;4.13;1.85;;;;;;;;;;6183810;28;20140;-81
2024/01/16 09:37:38;;;;;;;4.60;2.30;;;;;;;;;;6183693;28;20042;-81
2024/01/16 09:40:40;;;;;;;;;;;;;;;;;;6186079;28;20121;-81
2024/01/16 09:43:42;;;;;;;7.90;2.30;;;;;;;;;;6187486;28;19926;-80
2024/01/16 09:46:48;;;;;;;5.55;1.95;;;;;;;;;;6187998;28;20524;-81
2024/01/16 09:49:50;;;;;;;9.38;2.53;;;;;;;;;;6188298;28;20055;-81
2024/01/16 09:52:53;;;;;;;3.10;1.50;;;;;;;;;;6183112;28;20121;-80
2024/01/16 09:56:03;;;;;;;4.60;1.73;;;;;;;;;;6193559;28;20042;-80
2024/01/16 09:59:06;;;;;;;6.03;1.88;;;;;;;;;;6184248;28;20133;-80
2024/01/16 10:02:09;;;;;;;;;;;;;;;;;;6192888;28;20197;-81
2024/01/16 10:05:12;;;;;;;11.50;3.95;;;;;;;;;;6188709;28;19933;-80
2024/01/16 10:08:14;;;;;;;5.63;2.28;;;;;;;;;;6182521;28;20077;-81
2024/01/16 10:11:16;;;;;;;4.45;1.70;;;;;;;;;;6185741;28;20076;-82
2024/01/16 10:14:18;;;;;;;1.92;1.27;;;;;;;;;;6192417;28;20042;-82
2024/01/16 10:17:20;;;;;;;6.47;2.80;;;;;;;;;;6187557;28;20050;-81
2024/01/16 10:20:35;;;;;;;5.38;1.75;;;;;;;;;;6183402;28;20081;-82
2024/01/16 10:23:38;;;;;;;7.32;1.75;;;;;;;;;;6185799;28;20054;-81
2024/01/16 10:26:41;;;;;;;3.35;1.73;;;;;;;;;;6189388;28;20467;-80
2024/01/16 10:29:58;;;;;;;6.07;2.00;;;;;;;;;;6185223;28;20046;-81
2024/01/16 10:33:21;;;;;;;6.28;2.00;;;;;;;;;;6189907;28;20054;-80
2024/01/16 10:36:25;;;;;;;2.28;1.30;;;;;;;;;;6206387;28;20053;-79
2024/01/16 10:39:27;;;;;;;1.80;1.30;;;;;;;;;;6164630;28;20050;-81
2024/01/16 10:42:42;;;;;;;4.05;1.35;;;;;;;;;;6198111;28;20045;-81
2024/01/16 10:45:43;;;;;;;3.42;1.90;;;;;;;;;;6184192;28;20034;-82
2024/01/16 10:48:59;;;;;;;1.67;1.08;;;;;;;;;;6190547;28;20046;-81
2024/01/16 10:52:01;;;;;;;6.72;1.55;;;;;;;;;;6168713;28;20063;-82
2024/01/16 10:55:06;;;;;;;1.92;1.30;;;;;;;;;;6189309;28;20058;-82
2024/01/16 10:58:09;;;;;;;4.05;1.50;;;;;;;;;;6183841;28;20053;-81
2024/01/16 11:01:16;;;;;;;6.20;1.40;;;;;;;;;;6187314;28;20133;-82
2024/01/16 11:04:20;;;;;;;5.47;1.40;;;;;;;;;;6199278;28;20038;-82
2024/01/16 11:07:24;;;;;;;6.93;1.48;;;;;;;;;;6197453;28;20046;-81
2024/01/16 11:10:26;;;;;;;4.80;0.98;;;;;;;;;;6195624;28;20057;-80
2024/01/16 11:13:31;;;;;;;2.15;1.30;;;;;;;;;;6206232;28;20081;-80
2024/01/16 11:16:34;;;;;;;3.78;1.20;;;;;;;;;;6197576;28;20050;-82
2024/01/16 11:19:36;;;;;;;2.85;1.45;;;;;;;;;;6190394;28;20131;-81
2024/01/16 11:23:01;;;;;;;3.50;1.80;;;;;;;;;;6184168;28;20046;-82
2024/01/16 11:26:32;;;;;;;4.32;1.75;;;;;;;;;;6197397;28;20420;-82
2024/01/16 11:29:36;;;;;;;6.57;1.13;;;;;;;;;;6196581;28;20473;-82
2024/01/16 11:32:40;;;;;;;4.95;1.30;;;;;;;;;;6186115;28;20050;-82
2024/01/16 11:35:42;;;;;;;1.50;1.17;;;;;;;;;;6197282;28;20508;-82
2024/01/16 11:38:44;;;;;;;7.22;1.70;;;;;;;;;;6193481;28;20053;-82
2024/01/16 11:41:57;;;;;;;2.83;1.45;;;;;;;;;;6194185;28;20050;-82
2024/01/16 11:44:59;;;;;;;2.58;1.35;;;;;;;;;;6192286;28;20136;-81
2024/01/16 11:48:10;;;;;;;7.10;1.92;;;;;;;;;;6176450;28;20106;-81
2024/01/16 11:51:25;;;;;;;5.97;1.45;;;;;;;;;;6198273;28;20050;-83
2024/01/16 11:54:27;;;;;;;2.38;1.67;;;;;;;;;;6195704;28;20061;-79
2024/01/16 11:58:10;;;;;;;1.30;1.08;;;;;;;;;;6194727;28;20053;-80
2024/01/16 12:01:12;;;;;;;3.65;1.90;;;;;;;;;;6193075;28;20046;-80
2024/01/16 12:04:18;;;;;;;4.75;1.33;;;;;;;;;;6191497;28;20053;-79
2024/01/16 12:07:19;;;;;;;3.92;1.50;;;;;;;;;;6193319;28;20054;-80
2024/01/16 12:10:22;;;;;;;3.33;1.13;;;;;;;;;;6196297;28;20042;-80
2024/01/16 12:13:25;;;;;;;3.67;1.70;;;;;;;;;;6179329;28;20050;-81
2024/01/16 12:16:27;;;;;;;3.28;1.25;;;;;;;;;;6192497;28;20046;-80
2024/01/16 12:19:29;;;;;;;3.00;1.33;;;;;;;;;;6190516;28;20050;-81
2024/01/16 12:22:31;;;;;;;4.32;1.33;;;;;;;;;;6197815;28;20055;-81
2024/01/16 12:25:37;;;;;;;5.68;1.23;;;;;;;;;;6189496;28;20218;-81
2024/01/16 12:28:59;;;;;;;3.50;1.10;;;;;;;;;;6204361;28;20410;-80
2024/01/16 12:32:20;;;;;;;9.25;1.70;;;;;;;;;;6182439;28;20516;-82
2024/01/16 12:35:22;;;;;;;1.45;1.17;;;;;;;;;;6206968;28;20564;-80
2024/01/16 12:38:24;;;;;;;4.03;1.50;;;;;;;;;;6198101;28;20489;-81
2024/01/16 12:41:37;;;;;;;5.90;1.75;;;;;;;;;;6199432;28;20046;-81
2024/01/16 12:44:45;;;;;;;4.70;1.17;;;;;;;;;;6219998;28;20038;-79
2024/01/16 12:47:54;;;;;;;4.18;1.20;;;;;;;;;;6205581;28;20512;-82
2024/01/16 12:51:02;;;;;;;1.92;1.00;;;;;;;;;;6198660;28;20525;-82
2024/01/16 12:54:14;;;;;;;2.47;0.98;;;;;;;;;;6192509;28;20045;-78
2024/01/16 12:57:19;;;;;;;5.30;1.30;;;;;;;;;;6208564;28;20133;-81
2024/01/16 13:00:25;;;;;;;7.03;1.27;;;;;;;;;;6179438;28;20052;-80
2024/01/16 13:03:27;;;;;;;3.92;1.55;;;;;;;;;;6188351;28;20512;-79
2024/01/16 13:06:29;;;;;;;3.92;1.27;;;;;;;;;;6190575;28;20053;-79
2024/01/16 13:09:31;;;;;;;5.55;1.00;;;;;;;;;;6177532;28;20054;-80
2024/01/16 13:12:33;;;;;;;2.27;1.47;;;;;;;;;;6176863;28;20057;-79
2024/01/16 13:15:37;;;;;;;3.17;1.30;;;;;;;;;;6193005;28;20057;-80
2024/01/16 13:18:38;;;;;;;1.80;1.13;;;;;;;;;;6193668;28;20039;-80
2024/01/16 13:21:40;;;;;;;5.32;1.60;;;;;;;;;;6189927;28;20050;-81
2024/01/16 13:24:42;;;;;;;1.27;0.85;;;;;;;;;;6189078;28;20057;-81
2024/01/16 13:27:55;;;;;;;5.70;1.25;;;;;;;;;;6188682;28;20128;-80
2024/01/16 13:30:57;;;;;;;1.88;1.00;;;;;;;;;;6202774;28;20046;-80
2024/01/16 13:33:59;;;;;;;5.10;1.63;;;;;;;;;;6193813;28;20050;-80
2024/01/16 13:37:01;;;;;;;1.95;0.95;;;;;;;;;;6205759;28;20516;-80
2024/01/16 13:40:18;;;;;;;3.53;1.38;;;;;;;;;;6190415;28;20046;-79
2024/01/16 13:43:23;;;;;;;2.97;1.10;;;;;;;;;;6176347;28;20086;-79
2024/01/16 13:46:25;;;;;;;4.15;1.10;;;;;;;;;;6190694;28;20045;-80
2024/01/16 13:49:47;;;;;;;5.10;1.48;;;;;;;;;;6196589;28;20088;-80
2024/01/16 13:52:49;;;;;;;4.80;1.48;;;;;;;;;;6198757;28;20057;-79
2024/01/16 13:55:51;;;;;;;4.65;1.80;;;;;;;;;;6204776;28;20047;-81
2024/01/16 13:58:53;;;;;;;3.80;1.55;;;;;;;;;;6183351;28;20046;-80
2024/01/16 14:01:55;;;;;;;4.07;1.13;;;;;;;;;;6183829;28;20137;-80
2024/01/16 14:04:56;;;;;;;3.42;1.80;;;;;;;;;;6194951;28;20049;-80
2024/01/16 14:07:58;;;;;;;2.28;1.25;;;;;;;;;;6186221;28;20057;-80
2024/01/16 14:11:00;;;;;;;4.00;2.00;;;;;;;;;;6168372;28;20745;-82
2024/01/16 14:14:02;;;;;;;3.60;1.30;;;;;;;;;;6185967;28;20061;-82
2024/01/16 14:17:04;;;;;;;3.22;1.40;;;;;;;;;;6187484;28;20074;-81
2024/01/16 14:20:06;;;;;;;4.60;1.55;;;;;;;;;;6160798;28;20500;-81
2024/01/16 14:23:07;;;;;;;3.10;1.75;;;;;;;;;;6183319;28;20501;-80
2024/01/16 14:26:09;;;;;;;2.72;1.48;;;;;;;;;;6167288;28;20057;-80
2024/01/16 14:29:11;;;;;;;6.00;1.38;;;;;;;;;;6177378;28;20170;-80
2024/01/16 14:32:13;;;;;;;5.55;2.30;;;;;;;;;;6193549;28;20101;-81
2024/01/16 14:35:17;;;;;;;4.75;1.88;;;;;;;;;;6186998;28;20057;-81
2024/01/16 14:38:21;;;;;;;3.55;1.65;;;;;;;;;;6186434;28;20052;-82
2024/01/16 14:41:22;;;;;;;3.95;2.53;;;;;;;;;;6183575;28;20416;-81
2024/01/16 14:44:24;;;;;;;3.30;1.67;;;;;;;;;;6185349;28;20134;-81
2024/01/16 14:47:26;;;;;;;5.47;1.83;;;;;;;;;;6176914;28;20057;-81
2024/01/16 14:50:30;;;;;;;4.28;1.90;;;;;;;;;;6181932;28;20054;-81
2024/01/16 14:53:32;;;;;;;2.53;1.67;;;;;;;;;;6178907;28;20401;-81
2024/01/16 14:56:34;;;;;;;3.72;1.88;;;;;;;;;;6184041;28;20061;-82
2024/01/16 14:59:36;;;;;;;5.35;1.83;;;;;;;;;;6193453;28;20050;-82
2024/01/16 15:02:38;;;;;;;6.03;1.85;;;;;;;;;;6192911;28;20046;-81
2024/01/16 15:05:39;;;;;;;2.95;1.58;;;;;;;;;;6180935;28;20049;-78
2024/01/16 15:08:41;;;;;;;5.65;1.70;;;;;;;;;;6184645;28;20050;-78
2024/01/16 15:11:43;;;;;;;3.75;1.90;;;;;;;;;;6184111;28;20041;-77
2024/01/16 15:14:49;;;;;;;3.83;1.95;;;;;;;;;;6198584;28;20084;-82
2024/01/16 15:17:51;;;;;;;2.55;1.42;;;;;;;;;;6187500;28;20050;-82
2024/01/16 15:20:55;;;;;;;3.83;2.00;;;;;;;;;;6187312;28;20053;-80
2024/01/16 15:23:57;;;;;;;7.63;2.30;;;;;;;;;;6179335;28;20057;-80
2024/01/16 15:26:59;;;;;;;5.47;2.35;;;;;;;;;;6176834;28;20053;-81
2024/01/16 15:30:04;;;;;;;18.65;6.72;;;;;;;;;;6181367;28;20043;-82
2024/01/16 15:33:06;;;;;;;11.77;4.38;;;;;;;;;;6180786;28;20046;-80
2024/01/16 15:36:08;;;;;;;5.57;3.13;;;;;;;;;;6181255;28;20042;-80
2024/01/16 15:39:10;;;;;;;33.75;11.68;;;;;;;;;;6188377;28;20201;-80
2024/01/16 15:42:12;;;;;;;16.52;8.13;;;;;;;;;;6183434;28;20050;-81
2024/01/16 15:45:14;;;;;;;39.28;12.35;;;;;;;;;;6178686;28;20050;-79
2024/01/16 15:48:16;;;;;;;17.00;7.30;;;;;;;;;;6184220;28;20156;-79
2024/01/16 15:51:18;;;;;;;20.88;9.95;;;;;;;;;;6188933;28;20041;-79
2024/01/16 15:54:21;;;;;;;12.02;5.68;;;;;;;;;;6185571;28;21035;-79
2024/01/16 15:57:23;;;;;;;18.50;9.02;;;;;;;;;;6182493;28;20049;-79
2024/01/16 16:00:25;;;;;;;13.05;6.63;;;;;;;;;;6181757;28;20125;-79
2024/01/16 16:03:27;;;;;;;6.10;4.28;;;;;;;;;;6170775;28;20054;-79
2024/01/16 16:06:33;;;;;;;8.48;3.45;;;;;;;;;;6175942;28;20432;-79
2024/01/16 16:09:35;;;;;;;6.03;3.75;;;;;;;;;;6189813;28;20053;-78
2024/01/16 16:12:37;;;;;;;8.80;4.75;;;;;;;;;;6188617;28;20141;-79
2024/01/16 16:15:41;;;;;;;7.75;3.03;;;;;;;;;;6183484;28;20947;-79
2024/01/16 16:18:43;;;;;;;12.02;5.35;;;;;;;;;;6183183;28;20504;-80
2024/01/16 16:21:48;;;;;;;15.65;8.30;;;;;;;;;;6188544;28;20081;-79
2024/01/16 16:24:50;;;;;;;27.52;11.13;;;;;;;;;;6195922;28;20042;-80
2024/01/16 16:27:52;;;;;;;41.05;17.38;;;;;;;;;;6188207;28;20050;-80
2024/01/16 16:30:55;;;;;;;47.97;18.67;;;;;;;;;;6180922;28;20046;-81
2024/01/16 16:34:10;;;;;;;37.65;14.68;;;;;;;;;;6205172;28;20047;-82
2024/01/16 16:37:13;;;;;;;13.32;5.65;;;;;;;;;;6171675;28;20046;-81
2024/01/16 16:40:15;;;;;;;15.48;5.97;;;;;;;;;;6183005;28;20049;-81
2024/01/16 16:43:17;;;;;;;11.32;5.13;;;;;;;;;;6184339;28;20050;-79
2024/01/16 16:46:20;;;;;;;10.45;4.78;;;;;;;;;;6182499;28;20116;-80
2024/01/16 16:49:22;;;;;;;25.42;7.95;;;;;;;;;;6190858;28;20046;-80
2024/01/16 16:52:24;;;;;;;23.87;8.90;;;;;;;;;;6192529;28;20057;-80
2024/01/16 16:55:27;;;;;;;27.65;10.27;;;;;;;;;;6182231;28;20441;-79
2024/01/16 16:58:29;;;;;;;49.65;18.95;;;;;;;;;;6193509;28;20070;-80
2024/01/16 17:01:30;;;;;;;49.55;20.85;;;;;;;;;;6195885;28;20152;-79
2024/01/16 17:04:32;;;;;;;18.88;7.25;;;;;;;;;;6193475;28;20050;-80
2024/01/16 17:07:34;;;;;;;14.15;6.72;;;;;;;;;;6190641;28;20061;-79
2024/01/16 17:10:37;;;;;;;14.23;6.95;;;;;;;;;;6202321;28;20126;-78
2024/01/16 17:13:42;;;;;;;10.68;5.30;;;;;;;;;;6181811;28;20050;-78
2024/01/16 17:16:43;;;;;;;10.80;5.53;;;;;;;;;;6170330;28;20045;-79
2024/01/16 17:19:45;;;;;;;13.27;5.57;;;;;;;;;;6166795;28;20418;-78
2024/01/16 17:22:47;;;;;;;13.90;6.15;;;;;;;;;;6184931;28;20049;-79
2024/01/16 17:25:49;;;;;;;101.18;33.42;;;;;;;;;;6183657;28;20093;-79
2024/01/16 17:28:50;;;;;;;30.92;13.35;;;;;;;;;;6179967;28;20046;-79
2024/01/16 17:31:54;;;;;;;53.75;22.58;;;;;;;;;;6167839;28;20484;-79
2024/01/16 17:34:56;;;;;;;46.28;25.33;;;;;;;;;;6188647;28;20055;-79
2024/01/16 17:37:57;;;;;;;26.42;14.10;;;;;;;;;;6181674;28;20074;-79
2024/01/16 17:41:01;;;;;;;30.77;12.68;;;;;;;;;;6181251;28;20050;-79
2024/01/16 17:44:02;;;;;;;23.25;12.35;;;;;;;;;;6175828;28;20046;-79
2024/01/16 17:47:04;;;;;;;44.25;21.55;;;;;;;;;;6183983;28;20184;-79
2024/01/16 17:50:08;;;;;;;32.25;15.18;;;;;;;;;;6179822;28;20096;-79
2024/01/16 17:53:10;;;;;;;23.33;10.88;;;;;;;;;;6184041;28;20226;-78
2024/01/16 17:56:15;;;;;;;21.10;8.32;;;;;;;;;;6184590;28;20053;-79
2024/01/16 17:59:18;;;;;;;16.00;7.95;;;;;;;;;;6176723;28;20057;-78
2024/01/16 18:02:20;;;;;;;20.45;9.10;;;;;;;;;;6189392;28;20112;-79
2024/01/16 18:05:22;;;;;;;19.48;8.98;;;;;;;;;;6187190;28;20050;-78
2024/01/16 18:08:24;;;;;;;17.73;8.80;;;;;;;;;;6170297;28;20046;-79
2024/01/16 18:11:26;;;;;;;17.33;7.40;;;;;;;;;;6180438;28;20610;-78